Online Now
Guests 1
Members   0

24/7 FSX Server
IP: 71.135.74.145
@ KMCO until 8/6/21



Information and tools for flight simulation use only - NOT for real avaition

File Flight Plans Here

KMCO 312353Z 22008KT 10SM FEW045 FEW250 32/20 A3002 RMK AO2 SLP163 CB DSNT S TCU DSNT SE T03220200 10350 20322 55000 KMCO 312337Z 0100/0206 23010KT P6SM SCT040 BKN250 FM010300 20004KT P6SM FEW040 SCT080 FM011400 23012KT P6SM FEW015 SCT120 SCT250 FM012000 25009KT P6SM VCTS SCT035CB SCT120 BKN250 FM020000 VRB04KT P6SM FEW020 SCT080
Aviation Digital Data Service (ADDS)



Other FSX servers